Time,TemperatureF,DewpointF,PressureIn,WindDirection,WindDirectionDegrees,WindSpeedMPH,WindSpeedGustMPH,Humidity,HourlyPrecipIn,Conditions,Clouds,dailyrainin,SolarRadiationWatts/m^2,SoftwareType,DateUTC
2013-03-03 00:00:00,21.1,17.0,30.31,NE,43,0.0,0.0,84,0.00,,BKN080,0.03,0.00,VWS V14.01,2013-03-03 06:00:00,
2013-03-03 00:05:00,21.2,17.1,30.30,NE,43,0.0,0.0,84,0.00,,BKN080,0.00,0.00,VWS V14.01,2013-03-03 06:05:00,
2013-03-03 00:10:00,21.2,17.1,30.30,NE,43,0.0,0.0,84,0.00,,BKN080,0.00,0.00,VWS V14.01,2013-03-03 06:10:00,
2013-03-03 00:15:00,21.3,17.0,30.30,NE,43,0.0,0.0,83,0.00,,BKN080,0.00,0.00,VWS V14.01,2013-03-03 06:15:00,
2013-03-03 00:20:00,21.3,17.0,30.30,NE,43,0.0,0.0,83,0.00,,BKN080,0.00,0.00,VWS V14.01,2013-03-03 06:20:00,
2013-03-03 00:25:00,21.4,17.0,30.30,NE,43,0.0,0.0,83,0.00,,BKN080,0.00,0.00,VWS V14.01,2013-03-03 06:25:00,
2013-03-03 00:30:00,21.4,17.0,30.30,NE,56,0.0,0.0,83,0.00,,BKN080,0.00,0.00,VWS V14.01,2013-03-03 06:30:00,
2013-03-03 00:35:00,21.4,17.0,30.30,NE,56,0.0,0.0,83,0.00,,BKN080,0.00,0.00,VWS V14.01,2013-03-03 06:35:00,
2013-03-03 00:40:00,21.5,17.1,30.30,NE,56,0.0,0.0,83,0.00,,BKN080,0.00,0.00,VWS V14.01,2013-03-03 06:40:00,
2013-03-03 00:45:00,21.4,17.0,30.30,NE,56,0.0,0.0,83,0.00,,BKN080,0.00,0.00,VWS V14.01,2013-03-03 06:45:00,
2013-03-03 00:50:00,21.4,17.0,30.30,NE,56,0.0,0.0,83,0.00,,BKN090,0.00,0.00,VWS V14.01,2013-03-03 06:50:00,
2013-03-03 00:55:00,21.4,17.0,30.30,NE,56,0.0,0.0,83,0.00,,BKN090,0.00,0.00,VWS V14.01,2013-03-03 06:55:00,
2013-03-03 01:00:00,21.4,17.0,30.30,ENE,74,0.0,0.0,83,0.00,,BKN090,0.00,0.00,VWS V14.01,2013-03-03 07:00:00,
2013-03-03 01:05:00,21.3,16.7,30.29,ESE,111,0.0,0.0,82,0.00,,BKN090,0.00,0.00,VWS V14.01,2013-03-03 07:05:00,
2013-03-03 01:10:00,21.4,17.0,30.30,ESE,111,0.0,0.0,83,0.00,,BKN090,0.00,0.00,VWS V14.01,2013-03-03 07:10:00,
2013-03-03 01:15:00,21.4,16.8,30.29,ESE,111,0.0,0.0,82,0.00,,BKN090,0.00,0.00,VWS V14.01,2013-03-03 07:15:00,
2013-03-03 01:20:00,21.4,16.8,30.29,ESE,111,0.0,0.0,82,0.00,,BKN090,0.00,0.00,VWS V14.01,2013-03-03 07:20:00,
2013-03-03 01:26:00,21.5,16.9,30.29,ESE,111,0.0,0.0,82,0.00,,BKN090,0.00,0.00,VWS V14.01,2013-03-03 07:26:00,
2013-03-03 01:31:00,21.5,16.9,30.29,ESE,111,0.0,0.0,82,0.00,,BKN090,0.00,0.00,VWS V14.01,2013-03-03 07:31:00,
2013-03-03 01:36:00,21.5,16.9,30.29,ESE,111,0.0,0.0,82,0.00,,BKN090,0.00,0.00,VWS V14.01,2013-03-03 07:36:00,
2013-03-03 01:41:00,21.5,16.9,30.29,ESE,111,0.0,0.0,82,0.00,,BKN090,0.00,0.00,VWS V14.01,2013-03-03 07:41:00,
2013-03-03 01:46:00,21.6,17.0,30.28,ESE,111,0.0,0.0,82,0.00,,BKN090,0.00,0.00,VWS V14.01,2013-03-03 07:46:00,
2013-03-03 01:51:00,21.6,17.0,30.28,ESE,111,0.0,0.0,82,0.00,,OVC080,0.00,0.00,VWS V14.01,2013-03-03 07:51:00,
2013-03-03 01:56:00,21.7,17.1,30.28,ESE,111,0.0,0.0,82,0.00,,OVC080,0.00,0.00,VWS V14.01,2013-03-03 07:56:00,
2013-03-03 02:01:00,21.9,17.3,30.28,SSE,161,0.0,0.0,82,0.00,,OVC080,0.00,0.00,VWS V14.01,2013-03-03 08:01:00,
2013-03-03 02:06:00,22.1,17.2,30.28,SSE,164,0.0,0.0,81,0.00,,OVC080,0.00,0.00,VWS V14.01,2013-03-03 08:06:00,
2013-03-03 02:11:00,22.2,17.3,30.27,South,169,0.0,0.0,81,0.00,,OVC080,0.00,0.00,VWS V14.01,2013-03-03 08:11:00,
2013-03-03 02:16:00,22.2,17.0,30.27,SSE,168,0.0,0.0,80,0.00,,OVC080,0.00,0.00,VWS V14.01,2013-03-03 08:16:00,
2013-03-03 02:21:00,22.2,17.0,30.27,South,169,0.0,0.0,80,0.00,,OVC080,0.00,0.00,VWS V14.01,2013-03-03 08:21:00,
2013-03-03 02:26:00,22.3,17.4,30.26,South,174,0.0,0.0,81,0.00,,OVC080,0.00,0.00,VWS V14.01,2013-03-03 08:26:00,
2013-03-03 02:31:00,22.3,17.4,30.26,South,177,0.0,0.0,81,0.00,,OVC080,0.00,0.00,VWS V14.01,2013-03-03 08:31:00,
2013-03-03 02:36:00,22.3,17.4,30.26,South,176,0.0,0.0,81,0.00,,OVC080,0.00,0.00,VWS V14.01,2013-03-03 08:36:00,
2013-03-03 02:41:00,22.4,17.5,30.26,SSE,153,0.0,0.0,81,0.00,,OVC080,0.00,0.00,VWS V14.01,2013-03-03 08:41:00,
2013-03-03 02:46:00,22.3,17.6,30.26,SSE,153,0.0,0.0,82,0.00,,OVC080,0.00,0.00,VWS V14.01,2013-03-03 08:46:00,
2013-03-03 02:51:00,22.3,17.6,30.25,SSE,153,0.0,0.0,82,0.00,,OVC060,0.00,0.00,VWS V14.01,2013-03-03 08:51:00,
2013-03-03 02:56:00,22.3,17.6,30.25,SSE,153,0.0,0.0,82,0.00,,OVC060,0.00,0.00,VWS V14.01,2013-03-03 08:56:00,
2013-03-03 03:01:00,22.2,17.5,30.25,SSE,153,0.0,0.0,82,0.00,,OVC060,0.00,0.00,VWS V14.01,2013-03-03 09:01:00,
2013-03-03 03:06:00,22.2,17.5,30.25,SSE,153,0.0,0.0,82,0.00,,OVC060,0.00,0.00,VWS V14.01,2013-03-03 09:06:00,
2013-03-03 03:11:00,22.2,17.5,30.25,South,174,0.0,0.0,82,0.00,,OVC060,0.00,0.00,VWS V14.01,2013-03-03 09:11:00,
2013-03-03 03:16:00,22.4,17.8,30.25,South,172,0.0,0.0,82,0.00,,OVC060,0.00,0.00,VWS V14.01,2013-03-03 09:16:00,
2013-03-03 03:21:00,22.5,18.1,30.24,South,172,0.0,0.0,83,0.00,,OVC060,0.00,0.00,VWS V14.01,2013-03-03 09:21:00,
2013-03-03 03:26:00,22.6,18.2,30.24,South,189,0.0,0.0,83,0.00,,OVC060,0.00,0.00,VWS V14.01,2013-03-03 09:26:00,
2013-03-03 03:31:00,22.6,18.2,30.24,South,182,0.0,0.0,83,0.00,,OVC060,0.00,0.00,VWS V14.01,2013-03-03 09:31:00,
2013-03-03 03:36:00,22.7,18.0,30.24,South,177,0.0,0.0,82,0.00,,OVC060,0.00,0.00,VWS V14.01,2013-03-03 09:36:00,
2013-03-03 03:41:00,22.7,18.0,30.23,South,177,0.0,0.0,82,0.00,,OVC070,0.00,0.00,VWS V14.01,2013-03-03 09:41:00,
2013-03-03 03:46:00,22.7,18.0,30.23,South,177,0.0,0.0,82,0.00,,OVC070,0.00,0.00,VWS V14.01,2013-03-03 09:46:00,
2013-03-03 03:51:00,22.7,18.0,30.23,South,177,0.0,0.0,82,0.00,,OVC070,0.00,0.00,VWS V14.01,2013-03-03 09:51:00,
2013-03-03 03:56:00,22.7,18.0,30.23,South,177,0.0,0.0,82,0.00,,OVC070,0.00,0.00,VWS V14.01,2013-03-03 09:56:00,
2013-03-03 04:01:00,22.7,18.0,30.23,South,177,0.0,0.0,82,0.00,,OVC060,0.00,0.00,VWS V14.01,2013-03-03 10:01:00,
2013-03-03 04:06:00,22.7,18.0,30.23,South,177,0.0,0.0,82,0.00,,OVC060,0.00,0.00,VWS V14.01,2013-03-03 10:06:00,
2013-03-03 04:11:00,22.8,18.1,30.23,South,177,0.0,0.0,82,0.00,,OVC060,0.00,0.00,VWS V14.01,2013-03-03 10:11:00,
2013-03-03 04:16:00,22.9,18.5,30.23,South,177,0.0,0.0,83,0.00,,OVC060,0.00,0.00,VWS V14.01,2013-03-03 10:16:00,
2013-03-03 04:21:00,22.9,18.2,30.23,South,177,0.0,0.0,82,0.00,,OVC060,0.00,0.00,VWS V14.01,2013-03-03 10:21:00,
2013-03-03 04:26:00,22.9,18.2,30.23,South,177,0.0,0.0,82,0.00,,OVC060,0.00,0.00,VWS V14.01,2013-03-03 10:26:00,
2013-03-03 04:31:00,22.9,18.2,30.23,South,177,0.0,0.0,82,0.00,,OVC060,0.00,0.00,VWS V14.01,2013-03-03 10:31:00,
2013-03-03 04:36:00,22.9,18.2,30.24,SSE,151,0.0,0.0,82,0.00,,OVC060,0.00,0.00,VWS V14.01,2013-03-03 10:36:00,
2013-03-03 04:41:00,22.8,18.1,30.23,SSE,151,0.0,0.0,82,0.00,,OVC060,0.00,0.00,VWS V14.01,2013-03-03 10:41:00,
2013-03-03 04:46:00,22.7,18.0,30.24,SE,129,0.0,0.0,82,0.00,,OVC060,0.00,0.00,VWS V14.01,2013-03-03 10:46:00,
2013-03-03 04:51:00,22.6,17.9,30.23,SE,129,0.0,0.0,82,0.00,,OVC060,0.00,0.00,VWS V14.01,2013-03-03 10:51:00,
2013-03-03 04:56:00,22.6,17.9,30.24,SE,129,0.0,0.0,82,0.00,,OVC060,0.00,0.00,VWS V14.01,2013-03-03 10:56:00,
2013-03-03 05:01:00,22.6,17.9,30.24,SE,129,0.0,0.0,82,0.00,,OVC060,0.00,0.00,VWS V14.01,2013-03-03 11:01:00,
2013-03-03 05:06:00,22.5,17.9,30.24,SE,129,0.0,0.0,82,0.00,,OVC060,0.00,0.00,VWS V14.01,2013-03-03 11:06:00,
2013-03-03 05:11:00,22.5,17.9,30.23,SE,129,0.0,0.0,82,0.00,,OVC060,0.00,0.00,VWS V14.01,2013-03-03 11:11:00,
2013-03-03 05:16:00,22.5,17.9,30.23,SE,129,0.0,0.0,82,0.00,,OVC060,0.00,0.00,VWS V14.01,2013-03-03 11:16:00,
2013-03-03 05:21:00,22.4,17.8,30.23,SE,129,0.0,0.0,82,0.00,,OVC060,0.00,0.00,VWS V14.01,2013-03-03 11:21:00,
2013-03-03 05:27:00,22.4,17.8,30.23,SE,129,0.0,0.0,82,0.00,,OVC060,0.00,0.00,VWS V14.01,2013-03-03 11:27:00,
2013-03-03 05:32:00,22.4,17.8,30.23,SE,129,0.0,0.0,82,0.00,,OVC060,0.00,0.00,VWS V14.01,2013-03-03 11:32:00,
2013-03-03 05:37:00,22.4,17.8,30.24,SE,129,0.0,0.0,82,0.00,,OVC060,0.00,0.00,VWS V14.01,2013-03-03 11:37:00,
2013-03-03 05:42:00,22.4,17.8,30.23,SE,129,0.0,0.0,82,0.00,,OVC060,0.00,0.00,VWS V14.01,2013-03-03 11:42:00,
2013-03-03 05:47:00,22.4,17.8,30.24,SE,129,0.0,0.0,82,0.00,,OVC060,0.00,0.00,VWS V14.01,2013-03-03 11:47:00,
2013-03-03 05:52:00,22.3,17.6,30.23,SE,129,0.0,0.0,82,0.00,,OVC060,0.00,0.00,VWS V14.01,2013-03-03 11:52:00,
2013-03-03 05:57:00,22.3,17.6,30.24,SE,129,0.0,0.0,82,0.00,,OVC060,0.00,0.00,VWS V14.01,2013-03-03 11:57:00,
2013-03-03 06:02:00,22.4,17.8,30.24,SE,129,0.0,0.0,82,0.00,,OVC060,0.00,0.00,VWS V14.01,2013-03-03 12:02:00,
2013-03-03 06:07:00,22.4,17.8,30.24,SE,129,0.0,0.0,82,0.00,,OVC060,0.00,0.00,VWS V14.01,2013-03-03 12:07:00,
2013-03-03 06:12:00,22.4,17.8,30.24,SE,129,0.0,0.0,82,0.00,,OVC060,0.00,0.00,VWS V14.01,2013-03-03 12:12:00,
2013-03-03 06:17:00,22.4,17.8,30.24,SE,129,0.0,0.0,82,0.00,,OVC060,0.00,0.00,VWS V14.01,2013-03-03 12:17:00,
2013-03-03 06:22:00,22.4,17.8,30.23,East,101,0.0,3.0,82,0.00,,OVC060,0.00,0.00,VWS V14.01,2013-03-03 12:22:00,
2013-03-03 06:27:00,22.4,17.8,30.24,East,100,0.0,0.0,82,0.00,,OVC060,0.00,0.00,VWS V14.01,2013-03-03 12:27:00,
2013-03-03 06:32:00,22.5,17.9,30.23,ESE,102,0.0,0.0,82,0.00,,OVC060,0.00,0.00,VWS V14.01,2013-03-03 12:32:00,
2013-03-03 06:37:00,22.5,17.9,30.23,ESE,117,0.0,0.0,82,0.00,,OVC060,0.00,0.00,VWS V14.01,2013-03-03 12:37:00,
2013-03-03 06:42:00,22.4,17.8,30.23,ESE,117,0.0,0.0,82,0.00,,OVC060,0.00,0.00,VWS V14.01,2013-03-03 12:42:00,
2013-03-03 06:47:00,22.5,17.9,30.23,ESE,118,0.0,0.0,82,0.00,,OVC060,0.00,9.00,VWS V14.01,2013-03-03 12:47:00,
2013-03-03 06:52:00,22.5,17.9,30.23,ESE,120,0.0,0.0,82,0.00,,OVC060,0.00,16.00,VWS V14.01,2013-03-03 12:52:00,
2013-03-03 06:57:00,22.5,17.9,30.23,SE,125,0.0,0.0,82,0.00,,OVC060,0.00,23.00,VWS V14.01,2013-03-03 12:57:00,
2013-03-03 07:02:00,22.6,17.9,30.23,SE,125,0.0,0.0,82,0.00,,OVC060,0.00,32.00,VWS V14.01,2013-03-03 13:02:00,
2013-03-03 07:07:00,22.7,18.0,30.23,SE,125,0.0,0.0,82,0.00,,OVC060,0.00,42.00,VWS V14.01,2013-03-03 13:07:00,
2013-03-03 07:12:00,22.8,18.1,30.22,SE,125,0.0,0.0,82,0.00,,OVC060,0.00,49.00,VWS V14.01,2013-03-03 13:12:00,
2013-03-03 07:17:00,22.9,18.2,30.22,SE,125,0.0,0.0,82,0.00,,OVC060,0.00,60.00,VWS V14.01,2013-03-03 13:17:00,
2013-03-03 07:22:00,23.1,18.4,30.23,SSE,167,0.0,0.0,82,0.00,,OVC060,0.00,74.00,VWS V14.01,2013-03-03 13:22:00,
2013-03-03 07:27:00,23.4,18.4,30.23,South,191,6.0,7.0,81,0.00,,OVC060,0.00,86.00,VWS V14.01,2013-03-03 13:27:00,
2013-03-03 07:32:00,23.3,18.3,30.22,South,182,5.0,9.0,81,0.00,,OVC060,0.00,98.00,VWS V14.01,2013-03-03 13:32:00,
2013-03-03 07:37:00,23.3,18.6,30.22,South,176,6.0,7.0,82,0.00,,OVC060,0.00,111.00,VWS V14.01,2013-03-03 13:37:00,
2013-03-03 07:42:00,23.4,18.7,30.22,SSE,167,5.0,6.0,82,0.00,,OVC060,0.00,139.00,VWS V14.01,2013-03-03 13:42:00,
2013-03-03 07:47:00,23.8,18.8,30.22,South,174,0.0,0.0,81,0.00,,OVC060,0.00,190.00,VWS V14.01,2013-03-03 13:47:00,
2013-03-03 07:52:00,24.2,18.9,30.22,SSE,154,0.0,0.0,80,0.00,,OVC060,0.00,227.00,VWS V14.01,2013-03-03 13:52:00,
2013-03-03 07:57:00,24.4,19.1,30.22,SSE,149,0.0,0.0,80,0.00,,OVC060,0.00,251.00,VWS V14.01,2013-03-03 13:57:00,
2013-03-03 08:02:00,24.7,19.1,30.22,SSE,155,4.0,5.0,79,0.00,,OVC060,0.00,279.00,VWS V14.01,2013-03-03 14:02:00,
2013-03-03 08:07:00,25.0,19.1,30.22,SSE,148,3.0,6.0,78,0.00,,OVC060,0.00,287.00,VWS V14.01,2013-03-03 14:07:00,
2013-03-03 08:12:00,25.2,19.0,30.22,SSE,153,5.0,9.0,77,0.00,,OVC060,0.00,221.00,VWS V14.01,2013-03-03 14:12:00,
2013-03-03 08:17:00,25.1,18.9,30.22,ESE,119,3.0,6.0,77,0.00,,OVC060,0.00,220.00,VWS V14.01,2013-03-03 14:17:00,
2013-03-03 08:22:00,25.2,19.0,30.22,SSE,155,5.0,7.0,77,0.00,,OVC060,0.00,253.00,VWS V14.01,2013-03-03 14:22:00,
2013-03-03 08:27:00,25.2,19.0,30.22,SE,131,5.0,6.0,77,0.00,,OVC060,0.00,229.00,VWS V14.01,2013-03-03 14:27:00,
2013-03-03 08:32:00,25.2,19.0,30.21,SE,138,0.0,0.0,77,0.00,,OVC060,0.00,229.00,VWS V14.01,2013-03-03 14:32:00,
2013-03-03 08:37:00,25.2,19.0,30.21,SSE,162,5.0,6.0,77,0.00,,OVC060,0.00,244.00,VWS V14.01,2013-03-03 14:37:00,
2013-03-03 08:42:00,25.3,18.8,30.21,SSE,159,3.0,7.0,76,0.00,,OVC060,0.00,260.00,VWS V14.01,2013-03-03 14:42:00,
2013-03-03 08:47:00,25.5,19.0,30.21,SSE,164,5.0,7.0,76,0.00,,OVC060,0.00,276.00,VWS V14.01,2013-03-03 14:47:00,
2013-03-03 08:52:00,25.6,19.1,30.21,SSE,164,1.0,5.0,76,0.00,,BKN065,0.00,279.00,VWS V14.01,2013-03-03 14:52:00,
2013-03-03 08:57:00,25.9,19.1,30.21,SSE,149,6.0,6.0,75,0.00,,BKN065,0.00,297.00,VWS V14.01,2013-03-03 14:57:00,
2013-03-03 09:02:00,26.0,19.2,30.21,SE,138,5.0,11.0,75,0.00,,BKN065,0.00,320.00,VWS V14.01,2013-03-03 15:02:00,
2013-03-03 09:07:00,26.0,18.9,30.21,SSE,158,7.0,10.0,74,0.00,,BKN065,0.00,325.00,VWS V14.01,2013-03-03 15:07:00,
2013-03-03 09:12:00,26.1,19.0,30.21,SSE,168,4.0,10.0,74,0.00,,BKN065,0.00,327.00,VWS V14.01,2013-03-03 15:12:00,
2013-03-03 09:17:00,26.2,19.1,30.21,SE,139,6.0,11.0,74,0.00,,BKN065,0.00,336.00,VWS V14.01,2013-03-03 15:17:00,
2013-03-03 09:22:00,26.2,19.4,30.21,SSE,168,6.0,8.0,75,0.00,,BKN065,0.00,265.00,VWS V14.01,2013-03-03 15:22:00,
2013-03-03 09:28:00,26.3,19.5,30.21,South,186,5.0,7.0,75,0.00,,BKN065,0.00,441.00,VWS V14.01,2013-03-03 15:28:00,
2013-03-03 09:33:00,26.8,19.6,30.21,SSE,162,5.0,7.0,74,0.00,,BKN065,0.00,559.00,VWS V14.01,2013-03-03 15:33:00,
2013-03-03 09:38:00,27.2,20.0,30.20,South,176,7.0,11.0,74,0.00,,BKN065,0.00,673.00,VWS V14.01,2013-03-03 15:38:00,
2013-03-03 09:43:00,27.3,19.8,30.20,South,177,9.0,11.0,73,0.00,,BKN065,0.00,450.00,VWS V14.01,2013-03-03 15:43:00,
2013-03-03 09:48:00,27.4,20.2,30.20,South,172,7.0,13.0,74,0.00,,BKN065,0.00,473.00,VWS V14.01,2013-03-03 15:48:00,
2013-03-03 09:53:00,27.5,20.0,30.20,SSE,148,4.0,9.0,73,0.00,,SCT065,0.00,441.00,VWS V14.01,2013-03-03 15:53:00,
2013-03-03 09:58:00,27.7,20.2,30.20,SSE,165,4.0,9.0,73,0.00,,SCT065,0.00,427.00,VWS V14.01,2013-03-03 15:58:00,
2013-03-03 10:03:00,27.9,20.1,30.20,SE,144,5.0,8.0,72,0.00,,SCT065,0.00,439.00,VWS V14.01,2013-03-03 16:03:00,
2013-03-03 10:08:00,28.1,20.6,30.20,SSE,147,5.0,7.0,73,0.00,,SCT065,0.00,438.00,VWS V14.01,2013-03-03 16:08:00,
2013-03-03 10:13:00,28.3,20.4,30.20,SSE,159,5.0,7.0,72,0.00,,SCT065,0.00,410.00,VWS V14.01,2013-03-03 16:13:00,
2013-03-03 10:18:00,28.3,20.4,30.20,South,169,5.0,7.0,72,0.00,,SCT065,0.00,420.00,VWS V14.01,2013-03-03 16:18:00,
2013-03-03 10:23:00,28.4,20.2,30.20,SSE,161,5.0,10.0,71,0.00,,SCT065,0.00,401.00,VWS V14.01,2013-03-03 16:23:00,
2013-03-03 10:28:00,28.6,20.4,30.20,South,170,6.0,9.0,71,0.00,,SCT065,0.00,506.00,VWS V14.01,2013-03-03 16:28:00,
2013-03-03 10:33:00,28.7,20.5,30.19,SE,144,3.0,12.0,71,0.00,,SCT065,0.00,469.00,VWS V14.01,2013-03-03 16:33:00,
2013-03-03 10:38:00,28.9,20.4,30.19,SE,131,4.0,6.0,70,0.00,,SCT065,0.00,413.00,VWS V14.01,2013-03-03 16:38:00,
2013-03-03 10:43:00,29.0,20.1,30.19,SSE,159,5.0,10.0,69,0.00,,OVC065,0.00,559.00,VWS V14.01,2013-03-03 16:43:00,
2013-03-03 10:48:00,29.3,20.7,30.19,SSE,154,6.0,9.0,70,0.00,,OVC065,0.00,515.00,VWS V14.01,2013-03-03 16:48:00,
2013-03-03 10:53:00,29.3,20.7,30.19,SSE,148,2.0,9.0,70,0.00,,OVC065,0.00,445.00,VWS V14.01,2013-03-03 16:53:00,
2013-03-03 10:58:00,29.5,20.6,30.18,ESE,108,4.0,9.0,69,0.00,,OVC065,0.00,445.00,VWS V14.01,2013-03-03 16:58:00,
2013-03-03 11:03:00,29.6,20.4,30.18,SSE,147,2.0,6.0,68,0.00,,OVC065,0.00,503.00,VWS V14.01,2013-03-03 17:03:00,
2013-03-03 11:08:00,29.6,20.4,30.18,ESE,121,0.0,6.0,68,0.00,,OVC065,0.00,483.00,VWS V14.01,2013-03-03 17:08:00,
2013-03-03 11:13:00,29.8,20.9,30.18,ESE,119,4.0,6.0,69,0.00,,OVC065,0.00,545.00,VWS V14.01,2013-03-03 17:13:00,
2013-03-03 11:18:00,30.1,20.8,30.18,SSE,151,5.0,11.0,68,0.00,,OVC065,0.00,566.00,VWS V14.01,2013-03-03 17:18:00,
2013-03-03 11:23:00,30.1,20.5,30.18,ESE,118,2.0,7.0,67,0.00,,OVC065,0.00,555.00,VWS V14.01,2013-03-03 17:23:00,
2013-03-03 11:28:00,30.5,20.9,30.18,SSE,166,2.0,11.0,67,0.00,,OVC065,0.00,594.00,VWS V14.01,2013-03-03 17:28:00,
2013-03-03 11:33:00,30.7,21.4,30.18,South,170,6.0,8.0,68,0.00,,OVC065,0.00,612.00,VWS V14.01,2013-03-03 17:33:00,
2013-03-03 11:38:00,30.4,20.4,30.18,SSE,167,4.0,7.0,66,0.00,,OVC065,0.00,503.00,VWS V14.01,2013-03-03 17:38:00,
2013-03-03 11:43:00,30.5,20.5,30.18,SE,126,2.0,6.0,66,0.00,,OVC065,0.00,520.00,VWS V14.01,2013-03-03 17:43:00,
2013-03-03 11:48:00,30.7,20.3,30.18,ESE,103,4.0,6.0,65,0.00,,OVC065,0.00,547.00,VWS V14.01,2013-03-03 17:48:00,
2013-03-03 11:53:00,31.0,20.6,30.17,ESE,103,4.0,6.0,65,0.00,,CLR,0.00,513.00,VWS V14.01,2013-03-03 17:53:00,
2013-03-03 11:58:00,31.0,20.6,30.17,ESE,120,3.0,10.0,65,0.00,,CLR,0.00,575.00,VWS V14.01,2013-03-03 17:58:00,
2013-03-03 12:03:00,31.2,20.5,30.17,SE,133,3.0,6.0,64,0.00,,CLR,0.00,582.00,VWS V14.01,2013-03-03 18:03:00,
2013-03-03 12:08:00,31.4,20.3,30.17,ESE,118,6.0,7.0,63,0.00,,CLR,0.00,476.00,VWS V14.01,2013-03-03 18:08:00,
2013-03-03 12:13:00,31.1,19.2,30.17,SSE,148,5.0,9.0,61,0.00,,CLR,0.00,482.00,VWS V14.01,2013-03-03 18:13:00,
2013-03-03 12:18:00,31.3,19.8,30.16,SE,145,5.0,7.0,62,0.00,,CLR,0.00,529.00,VWS V14.01,2013-03-03 18:18:00,
2013-03-03 12:23:00,31.4,19.5,30.16,SE,141,5.0,9.0,61,0.00,,CLR,0.00,545.00,VWS V14.01,2013-03-03 18:23:00,
2013-03-03 12:28:00,31.6,18.9,30.16,SE,126,2.0,6.0,59,0.00,,CLR,0.00,476.00,VWS V14.01,2013-03-03 18:28:00,
2013-03-03 12:33:00,31.8,19.5,30.16,SE,133,10.0,10.0,60,0.00,,CLR,0.00,468.00,VWS V14.01,2013-03-03 18:33:00,
2013-03-03 12:38:00,31.7,20.2,30.15,SE,144,0.0,7.0,62,0.00,,CLR,0.00,543.00,VWS V14.01,2013-03-03 18:38:00,
2013-03-03 12:43:00,31.9,20.4,30.15,ESE,119,5.0,10.0,62,0.00,,CLR,0.00,446.00,VWS V14.01,2013-03-03 18:43:00,
2013-03-03 12:48:00,32.0,20.1,30.14,SE,124,4.0,7.0,61,0.00,,CLR,0.00,446.00,VWS V14.01,2013-03-03 18:48:00,
2013-03-03 12:53:00,32.0,19.7,30.14,SE,133,2.0,5.0,60,0.00,,CLR,0.00,485.00,VWS V14.01,2013-03-03 18:53:00,
2013-03-03 12:58:00,32.1,20.6,30.14,SE,138,0.0,9.0,62,0.00,,CLR,0.00,464.00,VWS V14.01,2013-03-03 18:58:00,
2013-03-03 13:03:00,32.2,20.3,30.13,SE,134,3.0,4.0,61,0.00,,CLR,0.00,446.00,VWS V14.01,2013-03-03 19:03:00,
2013-03-03 13:08:00,32.3,20.4,30.13,SE,145,3.0,8.0,61,0.00,,CLR,0.00,480.00,VWS V14.01,2013-03-03 19:08:00,
2013-03-03 13:13:00,32.6,21.4,30.13,ESE,122,4.0,6.0,63,0.00,,CLR,0.00,478.00,VWS V14.01,2013-03-03 19:13:00,
2013-03-03 13:18:00,32.4,22.7,30.12,ESE,114,1.0,5.0,67,0.00,,CLR,0.00,473.00,VWS V14.01,2013-03-03 19:18:00,
2013-03-03 13:23:00,32.5,23.1,30.12,ESE,112,3.0,6.0,68,0.00,,CLR,0.00,468.00,VWS V14.01,2013-03-03 19:23:00,
2013-03-03 13:28:00,32.6,22.9,30.12,ESE,122,1.0,5.0,67,0.00,,CLR,0.00,478.00,VWS V14.01,2013-03-03 19:28:00,
2013-03-03 13:34:00,32.5,23.1,30.12,East,101,4.0,5.0,68,0.00,,CLR,0.00,443.00,VWS V14.01,2013-03-03 19:34:00,
2013-03-03 13:39:00,32.5,23.5,30.12,SE,140,3.0,5.0,69,0.00,,CLR,0.00,429.00,VWS V14.01,2013-03-03 19:39:00,
2013-03-03 13:44:00,32.5,23.5,30.11,East,99,3.0,8.0,69,0.00,,BKN036,0.00,461.00,VWS V14.01,2013-03-03 19:44:00,
2013-03-03 13:49:00,32.5,23.8,30.11,SE,135,2.0,4.0,70,0.00,,BKN036,0.00,464.00,VWS V14.01,2013-03-03 19:49:00,
2013-03-03 13:54:00,32.5,23.8,30.11,East,96,4.0,4.0,70,0.00,,BKN036,0.00,469.00,VWS V14.01,2013-03-03 19:54:00,
2013-03-03 13:59:00,32.6,23.6,30.10,ESE,111,3.0,8.0,69,0.00,,BKN036,0.00,494.00,VWS V14.01,2013-03-03 19:59:00,
2013-03-03 14:04:00,32.8,23.8,30.10,East,93,6.0,7.0,69,0.00,,OVC036,0.00,469.00,VWS V14.01,2013-03-03 20:04:00,
2013-03-03 14:09:00,32.8,23.8,30.10,East,86,5.0,7.0,69,0.00,,OVC036,0.00,469.00,VWS V14.01,2013-03-03 20:09:00,
2013-03-03 14:14:00,32.9,23.9,30.09,ESE,102,0.0,6.0,69,0.00,,OVC036,0.00,427.00,VWS V14.01,2013-03-03 20:14:00,
2013-03-03 14:19:00,32.9,23.9,30.10,ESE,102,4.0,8.0,69,0.00,,OVC036,0.00,424.00,VWS V14.01,2013-03-03 20:19:00,
2013-03-03 14:24:00,32.5,24.2,30.10,East,92,4.0,8.0,71,0.00,,OVC036,0.00,418.00,VWS V14.01,2013-03-03 20:24:00,
2013-03-03 14:29:00,32.7,24.4,30.09,ESE,106,4.0,6.0,71,0.00,,OVC036,0.00,378.00,VWS V14.01,2013-03-03 20:29:00,
2013-03-03 14:34:00,32.6,24.2,30.09,ESE,115,0.0,6.0,71,0.00,,OVC036,0.00,380.00,VWS V14.01,2013-03-03 20:34:00,
2013-03-03 14:39:00,32.7,24.4,30.09,ESE,111,5.0,5.0,71,0.00,,OVC036,0.00,404.00,VWS V14.01,2013-03-03 20:39:00,
2013-03-03 14:44:00,32.8,24.1,30.09,ESE,103,3.0,5.0,70,0.00,,OVC036,0.00,387.00,VWS V14.01,2013-03-03 20:44:00,
2013-03-03 14:49:00,32.9,24.2,30.08,East,95,7.0,7.0,70,0.00,,OVC036,0.00,341.00,VWS V14.01,2013-03-03 20:49:00,
2013-03-03 14:54:00,33.0,23.2,30.09,SE,129,4.0,6.0,67,0.00,,OVC036,0.00,308.00,VWS V14.01,2013-03-03 20:54:00,
2013-03-03 14:59:00,33.0,22.2,30.08,SE,126,7.0,11.0,64,0.00,,OVC036,0.00,332.00,VWS V14.01,2013-03-03 20:59:00,
2013-03-03 15:04:00,33.2,22.0,30.08,SE,137,3.0,10.0,63,0.00,,OVC036,0.00,352.00,VWS V14.01,2013-03-03 21:04:00,
2013-03-03 15:09:00,33.3,22.1,30.08,SE,133,1.0,7.0,63,0.00,,OVC036,0.00,410.00,VWS V14.01,2013-03-03 21:09:00,
2013-03-03 15:14:00,33.4,22.5,30.08,ESE,117,1.0,10.0,64,0.00,,OVC036,0.00,378.00,VWS V14.01,2013-03-03 21:14:00,
2013-03-03 15:19:00,33.4,22.2,30.08,SE,124,0.0,10.0,63,0.00,,OVC036,0.00,308.00,VWS V14.01,2013-03-03 21:19:00,
2013-03-03 15:24:00,33.3,22.5,30.08,ESE,110,1.0,7.0,64,0.00,,OVC036,0.00,294.00,VWS V14.01,2013-03-03 21:24:00,
2013-03-03 15:29:00,33.3,22.5,30.08,ESE,106,1.0,6.0,64,0.00,,OVC036,0.00,285.00,VWS V14.01,2013-03-03 21:29:00,
2013-03-03 15:34:00,33.3,22.5,30.08,ESE,115,3.0,11.0,64,0.00,,OVC036,0.00,304.00,VWS V14.01,2013-03-03 21:34:00,
2013-03-03 15:39:00,33.2,23.1,30.07,ESE,114,2.0,7.0,66,0.00,,OVC036,0.00,294.00,VWS V14.01,2013-03-03 21:39:00,
2013-03-03 15:44:00,33.1,22.6,30.07,ESE,112,3.0,12.0,65,0.00,,OVC036,0.00,264.00,VWS V14.01,2013-03-03 21:44:00,
2013-03-03 15:49:00,33.0,22.5,30.07,ESE,108,5.0,9.0,65,0.00,,OVC036,0.00,265.00,VWS V14.01,2013-03-03 21:49:00,
2013-03-03 15:54:00,33.0,22.2,30.07,SE,133,3.0,6.0,64,0.00,,OVC036,0.00,253.00,VWS V14.01,2013-03-03 21:54:00,
2013-03-03 15:59:00,32.9,22.8,30.07,East,99,9.0,13.0,66,0.00,,OVC036,0.00,244.00,VWS V14.01,2013-03-03 21:59:00,
2013-03-03 16:04:00,32.7,23.3,30.07,East,97,9.0,13.0,68,0.00,,BKN038,0.00,258.00,VWS V14.01,2013-03-03 22:04:00,
2013-03-03 16:09:00,32.5,23.8,30.08,East,97,9.0,10.0,70,0.00,,BKN038,0.00,220.00,VWS V14.01,2013-03-03 22:09:00,
2013-03-03 16:14:00,32.4,23.4,30.07,ESE,102,6.0,6.0,69,0.00,,BKN038,0.00,176.00,VWS V14.01,2013-03-03 22:14:00,
2013-03-03 16:19:00,32.3,23.6,30.07,ESE,114,0.0,9.0,70,0.00,,BKN038,0.00,155.00,VWS V14.01,2013-03-03 22:19:00,
2013-03-03 16:24:00,32.1,23.4,30.07,ESE,116,6.0,9.0,70,0.00,,BKN038,0.00,149.00,VWS V14.01,2013-03-03 22:24:00,
2013-03-03 16:29:00,32.0,23.7,30.08,ESE,120,4.0,7.0,71,0.00,,BKN038,0.00,144.00,VWS V14.01,2013-03-03 22:29:00,
2013-03-03 16:34:00,32.0,23.3,30.08,East,96,4.0,7.0,70,0.00,,BKN038,0.00,128.00,VWS V14.01,2013-03-03 22:34:00,
2013-03-03 16:39:00,31.9,23.6,30.08,ESE,107,4.0,10.0,71,0.00,,BKN038,0.00,125.00,VWS V14.01,2013-03-03 22:39:00,
2013-03-03 16:44:00,31.9,23.6,30.08,ESE,118,5.0,9.0,71,0.00,,CLR,0.00,109.00,VWS V14.01,2013-03-03 22:44:00,
2013-03-03 16:50:00,31.8,23.5,30.08,ESE,120,1.0,7.0,71,0.00,,CLR,0.00,98.00,VWS V14.01,2013-03-03 22:50:00,
2013-03-03 16:55:00,31.8,23.5,30.07,East,94,12.0,13.0,71,0.00,,CLR,0.00,93.00,VWS V14.01,2013-03-03 22:55:00,
2013-03-03 17:00:00,31.8,23.5,30.07,ESE,111,4.0,7.0,71,0.00,,CLR,0.00,81.00,VWS V14.01,2013-03-03 23:00:00,
2013-03-03 17:05:00,31.8,23.5,30.07,ESE,109,4.0,9.0,71,0.00,,CLR,0.00,76.00,VWS V14.01,2013-03-03 23:05:00,
2013-03-03 17:10:00,31.7,23.4,30.07,East,100,6.0,11.0,71,0.00,,CLR,0.00,72.00,VWS V14.01,2013-03-03 23:10:00,
2013-03-03 17:15:00,31.7,23.4,30.07,ESE,103,4.0,11.0,71,0.00,,CLR,0.00,69.00,VWS V14.01,2013-03-03 23:15:00,
2013-03-03 17:20:00,31.6,23.6,30.07,SE,127,9.0,12.0,72,0.00,,CLR,0.00,58.00,VWS V14.01,2013-03-03 23:20:00,
2013-03-03 17:25:00,31.5,23.5,30.07,ESE,113,5.0,12.0,72,0.00,,CLR,0.00,49.00,VWS V14.01,2013-03-03 23:25:00,
2013-03-03 17:30:00,31.5,23.5,30.06,ESE,118,4.0,6.0,72,0.00,,CLR,0.00,42.00,VWS V14.01,2013-03-03 23:30:00,
2013-03-03 17:35:00,31.4,23.4,30.06,SE,127,5.0,11.0,72,0.00,,CLR,0.00,32.00,VWS V14.01,2013-03-03 23:35:00,
2013-03-03 17:40:00,31.4,23.4,30.06,ESE,107,6.0,11.0,72,0.00,,CLR,0.00,30.00,VWS V14.01,2013-03-03 23:40:00,
2013-03-03 17:45:00,31.3,23.3,30.06,ESE,112,5.0,11.0,72,0.00,,CLR,0.00,23.00,VWS V14.01,2013-03-03 23:45:00,
2013-03-03 17:50:00,31.2,23.2,30.06,East,91,5.0,12.0,72,0.00,,SCT070,0.00,16.00,VWS V14.01,2013-03-03 23:50:00,
2013-03-03 17:55:00,31.2,23.2,30.06,ESE,118,4.0,13.0,72,0.00,,SCT070,0.00,11.00,VWS V14.01,2013-03-03 23:55:00,
2013-03-03 18:00:00,31.1,23.5,30.05,ESE,107,7.0,15.0,73,0.00,,SCT070,0.00,5.00,VWS V14.01,2013-03-04 00:00:00,
2013-03-03 18:05:00,31.0,23.4,30.06,ESE,119,10.0,11.0,73,0.00,,SCT070,0.00,0.00,VWS V14.01,2013-03-04 00:05:00,
2013-03-03 18:10:00,30.9,23.3,30.05,ESE,112,10.0,12.0,73,0.00,,SCT070,0.00,0.00,VWS V14.01,2013-03-04 00:10:00,
2013-03-03 18:15:00,30.8,23.2,30.06,East,100,7.0,11.0,73,0.00,,SCT070,0.00,0.00,VWS V14.01,2013-03-04 00:15:00,
2013-03-03 18:20:00,30.8,23.2,30.05,ESE,106,5.0,12.0,73,0.00,,SCT070,0.00,0.00,VWS V14.01,2013-03-04 00:20:00,
2013-03-03 18:25:00,30.7,23.1,30.05,ESE,118,5.0,10.0,73,0.00,,SCT070,0.00,0.00,VWS V14.01,2013-03-04 00:25:00,
2013-03-03 18:30:00,30.7,23.1,30.05,East,91,6.0,10.0,73,0.00,,SCT070,0.00,0.00,VWS V14.01,2013-03-04 00:30:00,
2013-03-03 18:35:00,30.7,23.1,30.05,SE,136,9.0,10.0,73,0.00,,SCT070,0.00,0.00,VWS V14.01,2013-03-04 00:35:00,
2013-03-03 18:40:00,30.6,23.0,30.06,ESE,116,2.0,10.0,73,0.00,,SCT070,0.00,0.00,VWS V14.01,2013-03-04 00:40:00,
2013-03-03 18:45:00,30.6,23.0,30.06,ESE,112,4.0,11.0,73,0.00,,SCT070,0.00,0.00,VWS V14.01,2013-03-04 00:45:00,
2013-03-03 18:50:00,30.6,23.0,30.06,ESE,121,3.0,6.0,73,0.00,,SCT070,0.00,0.00,VWS V14.01,2013-03-04 00:50:00,
2013-03-03 18:55:00,30.6,23.0,30.06,ESE,116,2.0,6.0,73,0.00,,SCT070,0.00,0.00,VWS V14.01,2013-03-04 00:55:00,
2013-03-03 19:00:00,30.6,22.7,30.06,East,95,11.0,12.0,72,0.00,,SCT070,0.00,0.00,VWS V14.01,2013-03-04 01:00:00,
2013-03-03 19:05:00,30.6,22.7,30.06,SE,128,2.0,12.0,72,0.00,,CLR,0.00,0.00,VWS V14.01,2013-03-04 01:05:00,
2013-03-03 19:10:00,30.6,22.7,30.06,SE,144,7.0,7.0,72,0.00,,CLR,0.00,0.00,VWS V14.01,2013-03-04 01:10:00,
2013-03-03 19:15:00,30.5,22.6,30.06,SE,125,4.0,7.0,72,0.00,,CLR,0.00,0.00,VWS V14.01,2013-03-04 01:15:00,
2013-03-03 19:20:00,30.5,22.9,30.06,ESE,118,5.0,10.0,73,0.00,,CLR,0.00,0.00,VWS V14.01,2013-03-04 01:20:00,
2013-03-03 19:25:00,30.4,22.5,30.06,ESE,120,2.0,9.0,72,0.00,,CLR,0.00,0.00,VWS V14.01,2013-03-04 01:25:00,
2013-03-03 19:30:00,30.4,22.8,30.06,ESE,123,3.0,12.0,73,0.00,,CLR,0.00,0.00,VWS V14.01,2013-03-04 01:30:00,
2013-03-03 19:35:00,30.3,22.7,30.06,East,99,4.0,9.0,73,0.00,,CLR,0.00,0.00,VWS V14.01,2013-03-04 01:35:00,
2013-03-03 19:40:00,30.3,22.7,30.06,East,95,3.0,9.0,73,0.00,,CLR,0.00,0.00,VWS V14.01,2013-03-04 01:40:00,
2013-03-03 19:45:00,30.3,23.0,30.06,ESE,110,5.0,11.0,74,0.00,,CLR,0.00,0.00,VWS V14.01,2013-03-04 01:45:00,
2013-03-03 19:51:00,30.2,22.9,30.06,ESE,114,5.0,10.0,74,0.00,,CLR,0.00,0.00,VWS V14.01,2013-03-04 01:51:00,
2013-03-03 19:55:00,30.2,22.9,30.06,SE,146,7.0,13.0,74,0.00,,CLR,0.00,0.00,VWS V14.01,2013-03-04 01:55:00,
2013-03-03 20:01:00,30.2,23.2,30.06,East,100,5.0,10.0,75,0.00,,SCT065,0.00,0.00,VWS V14.01,2013-03-04 02:01:00,
2013-03-03 20:06:00,30.1,23.1,30.06,ESE,116,4.0,11.0,75,0.00,,SCT065,0.00,0.00,VWS V14.01,2013-03-04 02:06:00,
2013-03-03 20:11:00,30.2,23.2,30.06,ESE,112,10.0,10.0,75,0.00,,SCT065,0.00,0.00,VWS V14.01,2013-03-04 02:11:00,
2013-03-03 20:16:00,30.1,23.1,30.06,East,98,9.0,10.0,75,0.00,,SCT065,0.00,0.00,VWS V14.01,2013-03-04 02:16:00,
2013-03-03 20:21:00,30.2,22.9,30.06,ESE,115,4.0,12.0,74,0.00,,SCT065,0.00,0.00,VWS V14.01,2013-03-04 02:21:00,
2013-03-03 20:26:00,30.2,22.9,30.06,SE,146,12.0,12.0,74,0.00,,SCT065,0.00,0.00,VWS V14.01,2013-03-04 02:26:00,
2013-03-03 20:31:00,30.2,22.9,30.06,SE,124,6.0,12.0,74,0.00,,SCT065,0.00,0.00,VWS V14.01,2013-03-04 02:31:00,
2013-03-03 20:36:00,30.1,22.8,30.06,ESE,120,6.0,9.0,74,0.00,,SCT065,0.00,0.00,VWS V14.01,2013-03-04 02:36:00,
2013-03-03 20:41:00,30.1,22.8,30.06,SE,126,9.0,12.0,74,0.00,,SCT065,0.00,0.00,VWS V14.01,2013-03-04 02:41:00,
2013-03-03 20:46:00,30.1,23.1,30.06,ESE,109,4.0,13.0,75,0.00,,SCT065,0.00,0.00,VWS V14.01,2013-03-04 02:46:00,
2013-03-03 20:51:00,30.0,23.0,30.05,East,101,5.0,11.0,75,0.00,,CLR,0.00,0.00,VWS V14.01,2013-03-04 02:51:00,
2013-03-03 20:56:00,29.9,23.0,30.05,ESE,110,5.0,12.0,75,0.00,,CLR,0.00,0.00,VWS V14.01,2013-03-04 02:56:00,
2013-03-03 21:01:00,29.9,23.0,30.05,East,92,4.0,12.0,75,0.00,,CLR,0.00,0.00,VWS V14.01,2013-03-04 03:01:00,
2013-03-03 21:06:00,29.8,22.9,30.05,SE,135,6.0,12.0,75,0.00,,CLR,0.00,0.00,VWS V14.01,2013-03-04 03:06:00,
2013-03-03 21:11:00,29.8,22.9,30.06,East,95,6.0,11.0,75,0.00,,CLR,0.00,0.00,VWS V14.01,2013-03-04 03:11:00,
2013-03-03 21:16:00,29.7,22.8,30.06,ESE,115,4.0,7.0,75,0.00,,CLR,0.00,0.00,VWS V14.01,2013-03-04 03:16:00,
2013-03-03 21:21:00,29.7,22.8,30.06,ESE,110,6.0,8.0,75,0.00,,CLR,0.00,0.00,VWS V14.01,2013-03-04 03:21:00,
2013-03-03 21:26:00,29.6,22.7,30.06,ESE,115,6.0,7.0,75,0.00,,CLR,0.00,0.00,VWS V14.01,2013-03-04 03:26:00,
2013-03-03 21:31:00,29.5,22.6,30.05,SE,131,7.0,9.0,75,0.00,,CLR,0.00,0.00,VWS V14.01,2013-03-04 03:31:00,
2013-03-03 21:36:00,29.5,22.6,30.05,ESE,114,5.0,13.0,75,0.00,,CLR,0.00,0.00,VWS V14.01,2013-03-04 03:36:00,
2013-03-03 21:41:00,29.5,22.6,30.06,ESE,120,4.0,12.0,75,0.00,,CLR,0.00,0.00,VWS V14.01,2013-03-04 03:41:00,
2013-03-03 21:46:00,29.4,22.5,30.06,ESE,116,4.0,11.0,75,0.00,,CLR,0.00,0.00,VWS V14.01,2013-03-04 03:46:00,
2013-03-03 21:51:00,29.5,22.6,30.06,SE,141,6.0,9.0,75,0.00,,CLR,0.00,0.00,VWS V14.01,2013-03-04 03:51:00,
2013-03-03 21:56:00,29.5,22.6,30.06,SE,129,3.0,9.0,75,0.00,,CLR,0.00,0.00,VWS V14.01,2013-03-04 03:56:00,
2013-03-03 22:01:00,29.5,22.6,30.06,SE,128,5.0,9.0,75,0.00,,CLR,0.00,0.00,VWS V14.01,2013-03-04 04:01:00,
2013-03-03 22:06:00,29.5,22.6,30.07,SSE,149,5.0,14.0,75,0.00,,CLR,0.00,0.00,VWS V14.01,2013-03-04 04:06:00,
2013-03-03 22:11:00,29.5,22.6,30.07,SE,141,4.0,11.0,75,0.00,,CLR,0.00,0.00,VWS V14.01,2013-03-04 04:11:00,
2013-03-03 22:16:00,29.5,22.6,30.07,SSE,155,4.0,7.0,75,0.00,,CLR,0.00,0.00,VWS V14.01,2013-03-04 04:16:00,
2013-03-03 22:21:00,29.5,22.6,30.07,SE,132,5.0,6.0,75,0.00,,CLR,0.00,0.00,VWS V14.01,2013-03-04 04:21:00,
2013-03-03 22:26:00,29.5,22.6,30.07,SE,138,3.0,9.0,75,0.00,,CLR,0.00,0.00,VWS V14.01,2013-03-04 04:26:00,
2013-03-03 22:31:00,29.6,22.7,30.07,SSE,149,0.0,7.0,75,0.00,,CLR,0.00,0.00,VWS V14.01,2013-03-04 04:31:00,
2013-03-03 22:36:00,29.6,23.0,30.07,ESE,117,6.0,7.0,76,0.00,,CLR,0.00,0.00,VWS V14.01,2013-03-04 04:36:00,
2013-03-03 22:41:00,29.5,22.9,30.07,SE,136,0.0,10.0,76,0.00,,CLR,0.00,0.00,VWS V14.01,2013-03-04 04:41:00,
2013-03-03 22:46:00,29.4,23.4,30.07,SE,133,3.0,5.0,78,0.00,,CLR,0.00,0.00,VWS V14.01,2013-03-04 04:46:00,
2013-03-03 22:51:00,29.1,23.4,30.07,SE,139,5.0,6.0,79,0.00,,CLR,0.00,0.00,VWS V14.01,2013-03-04 04:51:00,
2013-03-03 22:56:00,28.9,23.8,30.06,SE,128,3.0,6.0,81,0.00,,CLR,0.00,0.00,VWS V14.01,2013-03-04 04:56:00,
2013-03-03 23:00:00,28.8,23.7,30.06,ESE,114,7.0,8.0,81,0.00,,CLR,0.00,0.00,VWS V14.01,2013-03-04 05:00:00,
2013-03-03 23:05:00,28.4,23.9,30.06,ESE,116,4.0,6.0,83,0.00,,CLR,0.00,0.00,VWS V14.01,2013-03-04 05:05:00,
2013-03-03 23:10:00,28.1,23.9,30.06,ESE,108,5.0,7.0,84,0.00,,CLR,0.00,0.00,VWS V14.01,2013-03-04 05:10:00,
2013-03-03 23:15:00,27.8,23.9,30.05,ESE,103,6.0,11.0,85,0.00,,CLR,0.00,0.00,VWS V14.01,2013-03-04 05:15:00,
2013-03-03 23:20:00,27.6,24.0,30.05,ESE,115,5.0,10.0,86,0.00,,CLR,0.00,0.00,VWS V14.01,2013-03-04 05:20:00,
2013-03-03 23:25:00,27.5,24.1,30.05,ESE,112,3.0,7.0,87,0.00,,CLR,0.00,0.00,VWS V14.01,2013-03-04 05:25:00,
2013-03-03 23:30:00,27.4,24.0,30.05,ESE,103,7.0,7.0,87,0.00,,CLR,0.00,0.00,VWS V14.01,2013-03-04 05:30:00,
2013-03-03 23:35:00,27.2,23.9,30.04,ESE,109,5.0,11.0,87,0.00,,CLR,0.00,0.00,VWS V14.01,2013-03-04 05:35:00,
2013-03-03 23:40:00,27.1,24.0,30.04,East,91,9.0,11.0,88,0.00,,CLR,0.00,0.00,VWS V14.01,2013-03-04 05:40:00,
2013-03-03 23:45:00,27.1,24.0,30.04,ESE,110,7.0,11.0,88,0.00,,CLR,0.00,0.00,VWS V14.01,2013-03-04 05:45:00,
2013-03-03 23:50:00,27.0,24.2,30.03,ESE,122,9.0,16.0,89,0.00,,,0.00,0.00,VWS V14.01,2013-03-04 05:50:00,
2013-03-03 23:55:00,26.9,24.1,30.03,ESE,110,6.0,11.0,89,0.00,,,0.00,0.00,VWS V14.01,2013-03-04 05:55:00,